KRK weather

Kraków John Paul II International Airport
Kraków, Lesser Poland, Poland

Public forecast

Using degrees Celsius for public forecast. Weather courtesy of forecast.io.

METAR (pilot weather report)

Retrieved 2019/03/23 22:00 UTC (13 minutes ago):

EPKK 232200Z VRB01KT 8000 NSC 06/04 Q1024

TAF (pilot weather forecast)

Retrieved 2019/03/23 21:37 UTC (36 minutes ago):

TAF EPKK 232030Z 2321/2421 VRB02KT CAVOK TEMPO 2321/2324 4000 BR BECMG 2400/2403 34012KT 4000 BR BKN007 OVC014 BECMG 2405/2407 9999 BKN013 BECMG 2407/2410 VRB02KT BKN020 BECMG 2418/2421 4000 RA BR